createdAt,value
2023-10-20T00:00:26.311Z,91.34
2023-10-20T00:05:29.300Z,91.70
2023-10-20T00:10:37.381Z,90.43
2023-10-20T00:15:40.804Z,90.38
2023-10-20T00:20:43.829Z,90.18
2023-10-20T00:25:46.756Z,90.66
2023-10-20T00:30:49.682Z,88.08
2023-10-20T00:35:52.650Z,87.00
2023-10-20T00:40:55.673Z,90.19
2023-10-20T00:46:00.676Z,88.54
2023-10-20T00:51:07.613Z,90.13
2023-10-20T00:56:10.651Z,89.24
2023-10-20T01:01:14.511Z,89.04
2023-10-20T01:06:17.546Z,88.13
2023-10-20T01:11:20.846Z,88.76
2023-10-20T01:16:24.689Z,91.02
2023-10-20T01:21:27.757Z,92.43
2023-10-20T01:26:30.733Z,90.26
2023-10-20T01:31:33.988Z,92.30
2023-10-20T01:36:38.489Z,91.86
2023-10-20T01:41:42.027Z,93.49
2023-10-20T01:46:50.696Z,91.09
2023-10-20T01:51:53.893Z,93.68
2023-10-20T01:56:56.834Z,91.65
2023-10-20T02:01:59.903Z,90.79
2023-10-20T02:07:03.175Z,92.66
2023-10-20T02:12:06.325Z,91.17
2023-10-20T02:17:09.805Z,90.65
2023-10-20T02:22:13.554Z,90.94
2023-10-20T02:27:16.487Z,91.50
2023-10-20T02:32:19.378Z,92.99
2023-10-20T02:37:22.703Z,92.91
2023-10-20T02:42:25.756Z,91.36
2023-10-20T02:47:29.909Z,93.43
2023-10-20T02:52:32.963Z,92.33
2023-10-20T02:57:37.644Z,91.25
2023-10-20T03:02:40.764Z,91.92
2023-10-20T03:07:44.035Z,90.01
2023-10-20T03:12:46.990Z,91.88
2023-10-20T03:17:50.031Z,91.01
2023-10-20T03:22:53.972Z,92.56
2023-10-20T03:27:56.908Z,90.42
2023-10-20T03:32:59.859Z,92.55
2023-10-20T03:38:04.612Z,89.95
2023-10-20T03:43:09.843Z,88.67
2023-10-20T03:48:12.940Z,89.20
2023-10-20T03:53:22.412Z,91.44
2023-10-20T03:58:26.675Z,90.52
2023-10-20T04:03:33.620Z,90.36
2023-10-20T04:08:36.645Z,91.22
2023-10-20T04:13:40.637Z,88.61
2023-10-20T04:18:45.145Z,89.89
2023-10-20T04:23:48.585Z,92.22
2023-10-20T04:29:09.346Z,91.97
2023-10-20T04:34:31.218Z,93.70
2023-10-20T04:39:52.977Z,93.67
2023-10-20T04:45:17.729Z,90.54
2023-10-20T04:50:20.701Z,93.81
2023-10-20T04:55:29.299Z,94.12
2023-10-20T05:00:36.218Z,92.59
2023-10-20T05:05:45.790Z,91.28
2023-10-20T05:10:50.704Z,89.43
2023-10-20T05:15:53.670Z,92.30
2023-10-20T05:20:56.741Z,89.45
2023-10-20T05:25:59.611Z,92.33
2023-10-20T05:31:02.675Z,90.52
2023-10-20T05:36:06.371Z,90.11
2023-10-20T05:41:09.294Z,90.96
2023-10-20T05:46:19.284Z,87.82
2023-10-20T05:51:23.137Z,89.10
2023-10-20T05:56:26.018Z,91.23
2023-10-20T06:01:29.001Z,92.22
2023-10-20T06:06:32.949Z,93.12
2023-10-20T06:11:39.385Z,93.50
2023-10-20T06:16:43.586Z,94.02
2023-10-20T06:21:47.455Z,94.98
2023-10-20T06:26:50.443Z,94.60
2023-10-20T06:32:13.507Z,95.08
2023-10-20T06:37:29.376Z,95.48
2023-10-20T06:42:32.496Z,95.70
2023-10-20T06:47:36.112Z,93.49
2023-10-20T06:52:39.151Z,93.18
2023-10-20T06:57:42.729Z,92.60
2023-10-20T07:02:46.105Z,92.31
2023-10-20T07:07:48.956Z,91.50
2023-10-20T07:12:51.746Z,91.36
2023-10-20T07:17:54.742Z,92.53
2023-10-20T07:22:58.740Z,91.97
2023-10-20T07:28:02.284Z,91.29
2023-10-20T07:33:05.701Z,90.33
2023-10-20T07:38:09.305Z,89.90
2023-10-20T07:43:12.387Z,91.00
2023-10-20T07:48:15.569Z,88.72
2023-10-20T07:53:19.733Z,89.65
2023-10-20T07:58:23.133Z,89.21
2023-10-20T08:03:26.187Z,88.68
2023-10-20T08:08:29.571Z,88.31
2023-10-20T08:13:35.128Z,87.69
2023-10-20T08:18:38.128Z,87.34
2023-10-20T08:23:41.180Z,87.06
2023-10-20T08:28:44.260Z,86.90
2023-10-20T08:33:47.115Z,88.45
2023-10-20T08:38:52.530Z,88.36
2023-10-20T08:43:57.491Z,87.94
2023-10-20T08:49:04.036Z,88.11
2023-10-20T08:54:10.405Z,88.71
2023-10-20T08:59:13.527Z,88.17
2023-10-20T09:04:24.505Z,89.18
2023-10-20T09:09:27.342Z,89.51
2023-10-20T09:14:30.347Z,89.15
2023-10-20T09:19:33.708Z,90.21
2023-10-20T09:24:36.785Z,89.91
2023-10-20T09:29:40.702Z,90.89
2023-10-20T09:34:43.793Z,89.89
2023-10-20T09:39:48.232Z,89.77
2023-10-20T09:45:12.760Z,89.78
2023-10-20T09:50:19.518Z,90.29
2023-10-20T09:55:22.970Z,89.47
2023-10-20T10:00:35.183Z,89.01
2023-10-20T10:05:38.801Z,88.53
2023-10-20T10:10:41.773Z,87.54
2023-10-20T10:15:48.504Z,86.47
2023-10-20T10:20:51.982Z,85.33
2023-10-20T10:25:55.097Z,86.25
2023-10-20T10:30:58.061Z,86.08
2023-10-20T10:36:06.527Z,84.27
2023-10-20T10:41:09.549Z,85.29
2023-10-20T10:46:13.138Z,85.42
2023-10-20T10:51:16.445Z,84.14
2023-10-20T10:56:19.531Z,83.13
2023-10-20T11:01:22.587Z,83.58
2023-10-20T11:06:26.000Z,83.21
2023-10-20T11:11:29.669Z,84.17
2023-10-20T11:16:37.731Z,83.37
2023-10-20T11:21:53.228Z,85.37
2023-10-20T11:27:08.170Z,84.61
2023-10-20T11:32:14.564Z,84.78
2023-10-20T11:37:17.489Z,84.17
2023-10-20T11:42:20.341Z,83.88
2023-10-20T11:47:23.416Z,83.34
2023-10-20T11:52:26.728Z,83.65
2023-10-20T11:57:29.652Z,82.42
2023-10-20T12:02:32.665Z,81.84
2023-10-20T12:07:36.294Z,82.31
2023-10-20T12:12:40.108Z,80.53
2023-10-20T12:17:43.287Z,80.11
2023-10-20T12:22:46.285Z,79.76
2023-10-20T12:27:49.212Z,80.42
2023-10-20T12:32:52.173Z,79.47
2023-10-20T12:37:55.813Z,79.08
2023-10-20T12:42:58.629Z,79.02
2023-10-20T12:48:02.743Z,81.62
2023-10-20T12:53:06.079Z,79.83
2023-10-20T12:58:09.758Z,78.31
2023-10-20T13:03:13.244Z,84.60
2023-10-20T13:08:16.310Z,86.74
2023-10-20T13:13:19.439Z,80.61
2023-10-20T13:18:22.609Z,78.98
2023-10-20T13:23:25.661Z,80.66
2023-10-20T13:28:28.600Z,78.10
2023-10-20T13:33:33.493Z,78.52
2023-10-20T13:38:38.966Z,78.01
2023-10-20T13:43:46.008Z,78.50
2023-10-20T13:48:49.126Z,77.73
2023-10-20T13:53:53.136Z,78.07
2023-10-20T13:58:56.044Z,78.46
2023-10-20T14:03:59.066Z,79.05
2023-10-20T14:09:02.256Z,78.68
2023-10-20T14:14:06.612Z,78.51
2023-10-20T14:19:09.476Z,77.63
2023-10-20T14:24:13.000Z,78.36
2023-10-20T14:29:17.381Z,79.46
2023-10-20T14:34:20.737Z,78.20
2023-10-20T14:39:23.832Z,77.62
2023-10-20T14:44:26.795Z,78.46
2023-10-20T14:49:30.657Z,77.81
2023-10-20T14:54:33.582Z,81.23
2023-10-20T14:59:36.897Z,83.20
2023-10-20T15:04:40.287Z,83.74
2023-10-20T15:09:43.596Z,84.32
2023-10-20T15:14:46.540Z,82.51
2023-10-20T15:19:49.833Z,80.48
2023-10-20T15:24:54.157Z,79.35
2023-10-20T15:29:57.022Z,81.69
2023-10-20T15:35:00.124Z,78.00
2023-10-20T15:40:17.610Z,73.00
2023-10-20T15:45:22.115Z,71.13
2023-10-20T15:50:25.096Z,69.93
2023-10-20T15:55:28.069Z,69.02
2023-10-20T16:00:33.260Z,69.79
2023-10-20T16:05:36.185Z,69.59
2023-10-20T16:10:39.143Z,68.86
2023-10-20T16:15:42.101Z,68.43
2023-10-20T16:20:47.101Z,69.69
2023-10-20T16:25:50.132Z,69.07
2023-10-20T16:30:54.654Z,69.21
2023-10-20T16:35:58.196Z,68.79
2023-10-20T16:41:01.647Z,68.60
2023-10-20T16:46:05.749Z,68.55
2023-10-20T16:51:08.866Z,68.38
2023-10-20T16:56:11.782Z,67.58
2023-10-20T17:01:16.374Z,67.18
2023-10-20T17:06:21.319Z,67.12
2023-10-20T17:11:25.122Z,66.13
2023-10-20T17:16:28.092Z,66.25
2023-10-20T17:21:32.412Z,66.80
2023-10-20T17:26:35.860Z,65.58
2023-10-20T17:31:39.628Z,64.07
2023-10-20T17:36:42.938Z,65.13
2023-10-20T17:41:46.792Z,64.31
2023-10-20T17:46:51.269Z,64.81
2023-10-20T17:51:54.309Z,64.33
2023-10-20T17:56:57.262Z,63.46
2023-10-20T18:02:00.269Z,64.41
2023-10-20T18:07:03.283Z,64.58
2023-10-20T18:12:06.991Z,65.27
2023-10-20T18:17:11.846Z,64.50
2023-10-20T18:22:16.536Z,64.52
2023-10-20T18:27:19.378Z,62.85
2023-10-20T18:32:22.407Z,62.54
2023-10-20T18:37:25.214Z,62.09
2023-10-20T18:42:28.042Z,63.73
2023-10-20T18:47:31.035Z,63.06
2023-10-20T18:52:33.902Z,63.81
2023-10-20T18:57:36.750Z,64.17
2023-10-20T19:02:40.204Z,63.98
2023-10-20T19:07:43.408Z,66.79
2023-10-20T19:12:47.262Z,66.21
2023-10-20T19:17:50.339Z,66.28
2023-10-20T19:22:54.103Z,64.32
2023-10-20T19:27:57.041Z,66.04
2023-10-20T19:33:00.145Z,64.76
2023-10-20T19:38:03.156Z,63.74
2023-10-20T19:43:05.983Z,64.70
2023-10-20T19:48:09.185Z,64.82
2023-10-20T19:53:12.222Z,63.95
2023-10-20T19:58:16.513Z,64.27
2023-10-20T20:03:19.766Z,65.63
2023-10-20T20:08:22.956Z,65.23
2023-10-20T20:13:26.646Z,64.63
2023-10-20T20:18:31.380Z,64.13
2023-10-20T20:23:34.415Z,64.01
2023-10-20T20:28:37.340Z,64.49
2023-10-20T20:33:40.463Z,63.77
2023-10-20T20:38:43.507Z,64.82
2023-10-20T20:43:46.427Z,65.35
2023-10-20T20:48:52.629Z,64.91
2023-10-20T20:53:55.788Z,66.12
2023-10-20T20:58:58.952Z,65.50
2023-10-20T21:04:02.260Z,64.60
2023-10-20T21:09:06.364Z,64.75
2023-10-20T21:14:09.809Z,65.74
2023-10-20T21:19:12.851Z,64.36
2023-10-20T21:24:15.948Z,64.30
2023-10-20T21:29:18.773Z,64.70
2023-10-20T21:34:21.820Z,64.06
2023-10-20T21:39:27.706Z,76.72
2023-10-20T21:44:32.705Z,85.66
2023-10-20T21:49:35.767Z,87.00
2023-10-20T21:54:39.443Z,88.10
2023-10-20T21:59:42.470Z,88.65
2023-10-20T22:04:45.404Z,86.92
2023-10-20T22:09:54.279Z,84.02
2023-10-20T22:14:57.600Z,84.46
2023-10-20T22:20:00.583Z,84.12
2023-10-20T22:25:06.900Z,83.13
2023-10-20T22:30:10.286Z,80.98
2023-10-20T22:35:13.407Z,82.07
2023-10-20T22:40:16.612Z,85.25
2023-10-20T22:45:19.859Z,87.42
2023-10-20T22:50:22.907Z,86.18
2023-10-20T22:55:25.844Z,90.41
2023-10-20T23:00:28.808Z,89.21
2023-10-20T23:05:32.117Z,88.65
2023-10-20T23:10:35.634Z,86.15
2023-10-20T23:15:44.669Z,86.92
2023-10-20T23:20:47.642Z,86.54
2023-10-20T23:25:50.628Z,84.97
2023-10-20T23:30:53.559Z,84.62
2023-10-20T23:35:57.665Z,86.23
2023-10-20T23:41:00.649Z,87.20
2023-10-20T23:46:03.570Z,87.82
2023-10-20T23:51:06.557Z,87.70
2023-10-20T23:56:09.540Z,85.52
